sensor_id;sensor_type;location;lat;lon;timestamp;temperature;humidity
5086;DHT22;4715;51.660;7.082;2023-02-24T00:01:48;5.90;99.90
5086;DHT22;4715;51.660;7.082;2023-02-24T00:04:12;5.90;99.90
5086;DHT22;4715;51.660;7.082;2023-02-24T00:06:37;5.80;99.90
5086;DHT22;4715;51.660;7.082;2023-02-24T00:09:00;5.80;99.90
5086;DHT22;4715;51.660;7.082;2023-02-24T00:11:21;5.70;99.90
5086;DHT22;4715;51.660;7.082;2023-02-24T00:13:44;5.70;99.90
5086;DHT22;4715;51.660;7.082;2023-02-24T00:16:07;5.60;99.90
5086;DHT22;4715;51.660;7.082;2023-02-24T00:18:29;5.60;99.90
5086;DHT22;4715;51.660;7.082;2023-02-24T00:20:51;5.50;99.90
5086;DHT22;4715;51.660;7.082;2023-02-24T00:23:17;5.50;99.90
5086;DHT22;4715;51.660;7.082;2023-02-24T00:25:39;5.40;99.90
5086;DHT22;4715;51.660;7.082;2023-02-24T00:28:01;5.40;99.90
5086;DHT22;4715;51.660;7.082;2023-02-24T00:30:23;5.30;99.90
5086;DHT22;4715;51.660;7.082;2023-02-24T00:32:44;5.20;99.90
5086;DHT22;4715;51.660;7.082;2023-02-24T00:35:07;5.20;99.90
5086;DHT22;4715;51.660;7.082;2023-02-24T00:37:29;5.10;99.90
5086;DHT22;4715;51.660;7.082;2023-02-24T00:39:52;5.10;99.90
5086;DHT22;4715;51.660;7.082;2023-02-24T00:42:18;5.10;99.90
5086;DHT22;4715;51.660;7.082;2023-02-24T00:44:43;5.10;99.90
5086;DHT22;4715;51.660;7.082;2023-02-24T00:47:06;5.10;99.90
5086;DHT22;4715;51.660;7.082;2023-02-24T00:49:28;5.10;99.90
5086;DHT22;4715;51.660;7.082;2023-02-24T00:51:52;5.00;99.90
5086;DHT22;4715;51.660;7.082;2023-02-24T00:54:14;5.00;99.90
5086;DHT22;4715;51.660;7.082;2023-02-24T00:56:38;5.00;99.90
5086;DHT22;4715;51.660;7.082;2023-02-24T00:59:01;5.00;99.90
5086;DHT22;4715;51.660;7.082;2023-02-24T01:01:25;5.00;99.90
5086;DHT22;4715;51.660;7.082;2023-02-24T01:03:49;4.90;99.90
5086;DHT22;4715;51.660;7.082;2023-02-24T01:06:15;4.90;99.90
5086;DHT22;4715;51.660;7.082;2023-02-24T01:08:40;4.80;99.90
5086;DHT22;4715;51.660;7.082;2023-02-24T01:11:07;4.80;99.90
5086;DHT22;4715;51.660;7.082;2023-02-24T01:13:48;4.90;99.90
5086;DHT22;4715;51.660;7.082;2023-02-24T01:16:10;4.80;99.90
5086;DHT22;4715;51.660;7.082;2023-02-24T01:18:34;4.90;99.90
5086;DHT22;4715;51.660;7.082;2023-02-24T01:20:57;4.80;99.90
5086;DHT22;4715;51.660;7.082;2023-02-24T01:23:19;4.80;99.90
5086;DHT22;4715;51.660;7.082;2023-02-24T01:25:45;4.90;99.90
5086;DHT22;4715;51.660;7.082;2023-02-24T01:28:07;4.80;99.90
5086;DHT22;4715;51.660;7.082;2023-02-24T01:30:31;4.80;99.90
5086;DHT22;4715;51.660;7.082;2023-02-24T01:32:53;4.80;99.90
5086;DHT22;4715;51.660;7.082;2023-02-24T01:35:16;4.80;99.90
5086;DHT22;4715;51.660;7.082;2023-02-24T01:37:38;4.70;99.90
5086;DHT22;4715;51.660;7.082;2023-02-24T01:40:01;4.80;99.90
5086;DHT22;4715;51.660;7.082;2023-02-24T01:42:30;4.70;99.90
5086;DHT22;4715;51.660;7.082;2023-02-24T01:45:06;4.70;99.90
5086;DHT22;4715;51.660;7.082;2023-02-24T01:47:33;4.70;99.90
5086;DHT22;4715;51.660;7.082;2023-02-24T01:49:55;4.70;99.90
5086;DHT22;4715;51.660;7.082;2023-02-24T01:52:20;4.70;99.90
5086;DHT22;4715;51.660;7.082;2023-02-24T01:54:45;4.60;99.90
5086;DHT22;4715;51.660;7.082;2023-02-24T01:57:12;4.60;99.90
5086;DHT22;4715;51.660;7.082;2023-02-24T01:59:36;4.60;99.90
5086;DHT22;4715;51.660;7.082;2023-02-24T02:02:01;4.50;99.90
5086;DHT22;4715;51.660;7.082;2023-02-24T02:04:29;4.50;99.90
5086;DHT22;4715;51.660;7.082;2023-02-24T02:06:52;4.40;99.90
5086;DHT22;4715;51.660;7.082;2023-02-24T02:09:14;4.40;99.90
5086;DHT22;4715;51.660;7.082;2023-02-24T02:11:36;4.40;99.90
5086;DHT22;4715;51.660;7.082;2023-02-24T02:13:58;4.40;99.90
5086;DHT22;4715;51.660;7.082;2023-02-24T02:16:40;4.40;99.90
5086;DHT22;4715;51.660;7.082;2023-02-24T02:22:06;4.40;99.90
5086;DHT22;4715;51.660;7.082;2023-02-24T02:24:42;4.40;99.90
5086;DHT22;4715;51.660;7.082;2023-02-24T02:27:30;4.40;99.90
5086;DHT22;4715;51.660;7.082;2023-02-24T02:30:22;4.40;99.90
5086;DHT22;4715;51.660;7.082;2023-02-24T02:33:09;4.40;99.90
5086;DHT22;4715;51.660;7.082;2023-02-24T02:35:48;4.30;99.90
5086;DHT22;4715;51.660;7.082;2023-02-24T02:38:17;4.30;99.90
5086;DHT22;4715;51.660;7.082;2023-02-24T02:40:50;4.30;99.90
5086;DHT22;4715;51.660;7.082;2023-02-24T02:43:17;4.20;99.90
5086;DHT22;4715;51.660;7.082;2023-02-24T02:45:51;4.20;99.90
5086;DHT22;4715;51.660;7.082;2023-02-24T02:48:17;4.20;99.90
5086;DHT22;4715;51.660;7.082;2023-02-24T02:50:45;4.20;99.90
5086;DHT22;4715;51.660;7.082;2023-02-24T02:53:12;4.20;99.90
5086;DHT22;4715;51.660;7.082;2023-02-24T02:55:38;4.20;99.90
5086;DHT22;4715;51.660;7.082;2023-02-24T02:58:03;4.10;99.90
5086;DHT22;4715;51.660;7.082;2023-02-24T03:00:31;4.20;99.90
5086;DHT22;4715;51.660;7.082;2023-02-24T03:02:58;4.20;99.90
5086;DHT22;4715;51.660;7.082;2023-02-24T03:05:28;4.20;99.90
5086;DHT22;4715;51.660;7.082;2023-02-24T03:07:52;4.20;99.90
5086;DHT22;4715;51.660;7.082;2023-02-24T03:10:19;4.20;99.90
5086;DHT22;4715;51.660;7.082;2023-02-24T03:12:45;4.20;99.90
5086;DHT22;4715;51.660;7.082;2023-02-24T03:15:09;4.20;99.90
5086;DHT22;4715;51.660;7.082;2023-02-24T03:17:36;4.20;99.90
5086;DHT22;4715;51.660;7.082;2023-02-24T03:20:05;4.20;99.90
5086;DHT22;4715;51.660;7.082;2023-02-24T03:22:35;4.20;99.90
5086;DHT22;4715;51.660;7.082;2023-02-24T03:25:02;4.10;99.90
5086;DHT22;4715;51.660;7.082;2023-02-24T03:27:28;4.10;99.90
5086;DHT22;4715;51.660;7.082;2023-02-24T03:29:54;4.00;99.90
5086;DHT22;4715;51.660;7.082;2023-02-24T03:32:23;4.00;99.90
5086;DHT22;4715;51.660;7.082;2023-02-24T03:34:55;3.90;99.90
5086;DHT22;4715;51.660;7.082;2023-02-24T03:37:18;3.90;99.90
5086;DHT22;4715;51.660;7.082;2023-02-24T03:39:46;3.90;99.90
5086;DHT22;4715;51.660;7.082;2023-02-24T03:42:15;3.90;99.90
5086;DHT22;4715;51.660;7.082;2023-02-24T03:44:38;3.90;99.90
5086;DHT22;4715;51.660;7.082;2023-02-24T03:47:00;3.90;99.90
5086;DHT22;4715;51.660;7.082;2023-02-24T03:49:22;3.80;99.90
5086;DHT22;4715;51.660;7.082;2023-02-24T03:51:53;3.80;99.90
5086;DHT22;4715;51.660;7.082;2023-02-24T03:54:30;3.80;99.90
5086;DHT22;4715;51.660;7.082;2023-02-24T03:57:07;3.80;99.90
5086;DHT22;4715;51.660;7.082;2023-02-24T03:59:44;3.80;99.90
5086;DHT22;4715;51.660;7.082;2023-02-24T04:02:15;3.80;99.90
5086;DHT22;4715;51.660;7.082;2023-02-24T04:04:44;3.80;99.90
5086;DHT22;4715;51.660;7.082;2023-02-24T04:07:12;3.80;99.90
5086;DHT22;4715;51.660;7.082;2023-02-24T04:09:39;3.80;99.90
5086;DHT22;4715;51.660;7.082;2023-02-24T04:12:08;3.80;99.90
5086;DHT22;4715;51.660;7.082;2023-02-24T04:14:40;3.80;99.90
5086;DHT22;4715;51.660;7.082;2023-02-24T04:17:08;3.80;99.90
5086;DHT22;4715;51.660;7.082;2023-02-24T04:19:35;3.80;99.90
5086;DHT22;4715;51.660;7.082;2023-02-24T04:21:59;3.80;99.90
5086;DHT22;4715;51.660;7.082;2023-02-24T04:24:24;3.80;99.90
5086;DHT22;4715;51.660;7.082;2023-02-24T04:26:48;3.80;99.90
5086;DHT22;4715;51.660;7.082;2023-02-24T04:29:16;3.80;99.90
5086;DHT22;4715;51.660;7.082;2023-02-24T04:31:41;3.70;99.90
5086;DHT22;4715;51.660;7.082;2023-02-24T04:34:05;3.70;99.90
5086;DHT22;4715;51.660;7.082;2023-02-24T04:36:28;3.70;99.90
5086;DHT22;4715;51.660;7.082;2023-02-24T04:38:53;3.60;99.90
5086;DHT22;4715;51.660;7.082;2023-02-24T04:41:15;3.60;99.90
5086;DHT22;4715;51.660;7.082;2023-02-24T04:43:40;3.60;99.90
5086;DHT22;4715;51.660;7.082;2023-02-24T04:46:03;3.50;99.90
5086;DHT22;4715;51.660;7.082;2023-02-24T04:48:28;3.50;99.90
5086;DHT22;4715;51.660;7.082;2023-02-24T04:50:50;3.50;99.90
5086;DHT22;4715;51.660;7.082;2023-02-24T04:53:15;3.50;99.90
5086;DHT22;4715;51.660;7.082;2023-02-24T04:55:39;3.50;99.90
5086;DHT22;4715;51.660;7.082;2023-02-24T04:58:02;3.50;99.90
5086;DHT22;4715;51.660;7.082;2023-02-24T05:00:24;3.50;99.90
5086;DHT22;4715;51.660;7.082;2023-02-24T05:02:54;3.50;99.90
5086;DHT22;4715;51.660;7.082;2023-02-24T05:05:20;3.50;99.90
5086;DHT22;4715;51.660;7.082;2023-02-24T05:07:44;3.50;99.90
5086;DHT22;4715;51.660;7.082;2023-02-24T05:10:08;3.40;99.90
5086;DHT22;4715;51.660;7.082;2023-02-24T05:12:30;3.40;99.90
5086;DHT22;4715;51.660;7.082;2023-02-24T05:14:52;3.40;99.90
5086;DHT22;4715;51.660;7.082;2023-02-24T05:17:14;3.40;99.90
5086;DHT22;4715;51.660;7.082;2023-02-24T05:19:37;3.40;99.90
5086;DHT22;4715;51.660;7.082;2023-02-24T05:22:19;3.40;99.90
5086;DHT22;4715;51.660;7.082;2023-02-24T05:24:42;3.40;99.90
5086;DHT22;4715;51.660;7.082;2023-02-24T05:27:07;3.40;99.90
5086;DHT22;4715;51.660;7.082;2023-02-24T05:29:31;3.40;99.90
5086;DHT22;4715;51.660;7.082;2023-02-24T05:31:54;3.40;99.90
5086;DHT22;4715;51.660;7.082;2023-02-24T05:34:19;3.30;99.90
5086;DHT22;4715;51.660;7.082;2023-02-24T05:36:43;3.40;99.90
5086;DHT22;4715;51.660;7.082;2023-02-24T05:39:07;3.40;99.90
5086;DHT22;4715;51.660;7.082;2023-02-24T05:41:33;3.40;99.90
5086;DHT22;4715;51.660;7.082;2023-02-24T05:43:58;3.30;99.90
5086;DHT22;4715;51.660;7.082;2023-02-24T05:46:23;3.40;99.90
5086;DHT22;4715;51.660;7.082;2023-02-24T05:48:49;3.40;99.90
5086;DHT22;4715;51.660;7.082;2023-02-24T05:51:12;3.40;99.90
5086;DHT22;4715;51.660;7.082;2023-02-24T05:53:34;3.30;99.90
5086;DHT22;4715;51.660;7.082;2023-02-24T05:56:01;3.30;99.90
5086;DHT22;4715;51.660;7.082;2023-02-24T05:58:25;3.30;99.90
5086;DHT22;4715;51.660;7.082;2023-02-24T06:00:48;3.30;99.90
5086;DHT22;4715;51.660;7.082;2023-02-24T06:03:12;3.30;99.90
5086;DHT22;4715;51.660;7.082;2023-02-24T06:05:36;3.30;99.90
5086;DHT22;4715;51.660;7.082;2023-02-24T06:07:59;3.30;99.90
5086;DHT22;4715;51.660;7.082;2023-02-24T06:10:25;3.30;99.90
5086;DHT22;4715;51.660;7.082;2023-02-24T06:12:48;3.30;99.90
5086;DHT22;4715;51.660;7.082;2023-02-24T06:15:10;3.30;99.90
5086;DHT22;4715;51.660;7.082;2023-02-24T06:17:33;3.30;99.90
5086;DHT22;4715;51.660;7.082;2023-02-24T06:19:55;3.30;99.90
5086;DHT22;4715;51.660;7.082;2023-02-24T06:22:19;3.30;99.90
5086;DHT22;4715;51.660;7.082;2023-02-24T06:24:42;3.30;99.90
5086;DHT22;4715;51.660;7.082;2023-02-24T06:27:04;3.30;99.90
5086;DHT22;4715;51.660;7.082;2023-02-24T06:29:31;3.30;99.90
5086;DHT22;4715;51.660;7.082;2023-02-24T06:31:53;3.30;99.90
5086;DHT22;4715;51.660;7.082;2023-02-24T06:34:16;3.30;99.90
5086;DHT22;4715;51.660;7.082;2023-02-24T06:36:39;3.30;99.90
5086;DHT22;4715;51.660;7.082;2023-02-24T06:39:02;3.30;99.90
5086;DHT22;4715;51.660;7.082;2023-02-24T06:41:27;3.30;99.90
5086;DHT22;4715;51.660;7.082;2023-02-24T06:43:50;3.30;99.90
5086;DHT22;4715;51.660;7.082;2023-02-24T06:46:14;3.30;99.90
5086;DHT22;4715;51.660;7.082;2023-02-24T06:48:36;3.30;99.90
5086;DHT22;4715;51.660;7.082;2023-02-24T06:51:01;3.40;99.90
5086;DHT22;4715;51.660;7.082;2023-02-24T06:53:24;3.40;99.90
5086;DHT22;4715;51.660;7.082;2023-02-24T06:55:47;3.40;99.90
5086;DHT22;4715;51.660;7.082;2023-02-24T06:58:14;3.40;99.90
5086;DHT22;4715;51.660;7.082;2023-02-24T07:00:40;3.40;99.90
5086;DHT22;4715;51.660;7.082;2023-02-24T07:03:08;3.50;99.90
5086;DHT22;4715;51.660;7.082;2023-02-24T07:05:36;3.50;99.90
5086;DHT22;4715;51.660;7.082;2023-02-24T07:07:58;3.50;99.90
5086;DHT22;4715;51.660;7.082;2023-02-24T07:10:20;3.50;99.90
5086;DHT22;4715;51.660;7.082;2023-02-24T07:12:42;3.50;99.90
5086;DHT22;4715;51.660;7.082;2023-02-24T07:15:05;3.50;99.90
5086;DHT22;4715;51.660;7.082;2023-02-24T07:17:27;3.50;99.90
5086;DHT22;4715;51.660;7.082;2023-02-24T07:19:53;3.60;99.90
5086;DHT22;4715;51.660;7.082;2023-02-24T07:22:16;3.60;99.90
5086;DHT22;4715;51.660;7.082;2023-02-24T07:24:44;3.60;99.90
5086;DHT22;4715;51.660;7.082;2023-02-24T07:27:09;3.60;99.90
5086;DHT22;4715;51.660;7.082;2023-02-24T07:29:33;3.70;99.90
5086;DHT22;4715;51.660;7.082;2023-02-24T07:31:58;3.70;99.90
5086;DHT22;4715;51.660;7.082;2023-02-24T07:34:23;3.70;99.90
5086;DHT22;4715;51.660;7.082;2023-02-24T07:36:46;3.70;99.90
5086;DHT22;4715;51.660;7.082;2023-02-24T07:39:09;3.70;99.90
5086;DHT22;4715;51.660;7.082;2023-02-24T07:41:31;3.70;99.90
5086;DHT22;4715;51.660;7.082;2023-02-24T07:43:56;3.70;99.90
5086;DHT22;4715;51.660;7.082;2023-02-24T07:46:20;3.70;99.90
5086;DHT22;4715;51.660;7.082;2023-02-24T07:48:43;3.80;99.90
5086;DHT22;4715;51.660;7.082;2023-02-24T07:51:06;3.70;99.90
5086;DHT22;4715;51.660;7.082;2023-02-24T07:53:29;3.80;99.90
5086;DHT22;4715;51.660;7.082;2023-02-24T07:55:51;3.80;99.90
5086;DHT22;4715;51.660;7.082;2023-02-24T07:58:13;3.80;99.90
5086;DHT22;4715;51.660;7.082;2023-02-24T08:00:35;3.80;99.90
5086;DHT22;4715;51.660;7.082;2023-02-24T08:03:18;3.80;99.90
5086;DHT22;4715;51.660;7.082;2023-02-24T08:05:42;3.80;99.90
5086;DHT22;4715;51.660;7.082;2023-02-24T08:08:04;3.80;99.90
5086;DHT22;4715;51.660;7.082;2023-02-24T08:10:27;3.80;99.90
5086;DHT22;4715;51.660;7.082;2023-02-24T08:12:55;3.90;99.90
5086;DHT22;4715;51.660;7.082;2023-02-24T08:15:24;3.90;99.90
5086;DHT22;4715;51.660;7.082;2023-02-24T08:17:55;3.90;99.90
5086;DHT22;4715;51.660;7.082;2023-02-24T08:20:19;3.90;99.90
5086;DHT22;4715;51.660;7.082;2023-02-24T08:22:50;3.90;99.90
5086;DHT22;4715;51.660;7.082;2023-02-24T08:25:14;4.00;99.90
5086;DHT22;4715;51.660;7.082;2023-02-24T08:27:39;4.00;99.90
5086;DHT22;4715;51.660;7.082;2023-02-24T08:30:01;4.00;99.90
5086;DHT22;4715;51.660;7.082;2023-02-24T08:32:24;4.00;99.90
5086;DHT22;4715;51.660;7.082;2023-02-24T08:34:47;4.00;99.90
5086;DHT22;4715;51.660;7.082;2023-02-24T08:37:09;4.10;99.90
5086;DHT22;4715;51.660;7.082;2023-02-24T08:39:35;4.10;99.90
5086;DHT22;4715;51.660;7.082;2023-02-24T08:41:57;4.10;99.90
5086;DHT22;4715;51.660;7.082;2023-02-24T08:44:20;4.10;99.90
5086;DHT22;4715;51.660;7.082;2023-02-24T08:46:42;4.10;99.90
5086;DHT22;4715;51.660;7.082;2023-02-24T08:49:05;4.20;99.90
5086;DHT22;4715;51.660;7.082;2023-02-24T08:51:48;4.20;99.90
5086;DHT22;4715;51.660;7.082;2023-02-24T08:54:17;4.20;99.90
5086;DHT22;4715;51.660;7.082;2023-02-24T08:56:47;4.20;99.90
5086;DHT22;4715;51.660;7.082;2023-02-24T08:59:16;4.20;99.90
5086;DHT22;4715;51.660;7.082;2023-02-24T09:01:59;4.30;99.90
5086;DHT22;4715;51.660;7.082;2023-02-24T09:04:37;4.30;99.90
5086;DHT22;4715;51.660;7.082;2023-02-24T09:06:59;4.40;99.90
5086;DHT22;4715;51.660;7.082;2023-02-24T09:09:26;4.40;99.90
5086;DHT22;4715;51.660;7.082;2023-02-24T09:11:50;4.40;99.90
5086;DHT22;4715;51.660;7.082;2023-02-24T09:14:17;4.40;99.90
5086;DHT22;4715;51.660;7.082;2023-02-24T09:16:40;4.50;99.90
5086;DHT22;4715;51.660;7.082;2023-02-24T09:19:22;4.50;99.90
5086;DHT22;4715;51.660;7.082;2023-02-24T09:22:22;4.50;99.90
5086;DHT22;4715;51.660;7.082;2023-02-24T09:24:52;4.50;99.90
5086;DHT22;4715;51.660;7.082;2023-02-24T09:27:37;4.50;99.90
5086;DHT22;4715;51.660;7.082;2023-02-24T09:30:01;4.50;99.90
5086;DHT22;4715;51.660;7.082;2023-02-24T09:32:27;4.50;99.90
5086;DHT22;4715;51.660;7.082;2023-02-24T09:34:50;4.50;99.90
5086;DHT22;4715;51.660;7.082;2023-02-24T09:37:14;4.50;99.90
5086;DHT22;4715;51.660;7.082;2023-02-24T09:39:45;4.50;99.90
5086;DHT22;4715;51.660;7.082;2023-02-24T09:42:39;4.60;99.90
5086;DHT22;4715;51.660;7.082;2023-02-24T09:45:12;4.50;99.90
5086;DHT22;4715;51.660;7.082;2023-02-24T09:47:41;4.50;99.90
5086;DHT22;4715;51.660;7.082;2023-02-24T09:50:21;4.50;99.90
5086;DHT22;4715;51.660;7.082;2023-02-24T09:52:51;4.50;99.90
5086;DHT22;4715;51.660;7.082;2023-02-24T09:55:17;4.50;99.90
5086;DHT22;4715;51.660;7.082;2023-02-24T09:57:47;4.50;99.90
5086;DHT22;4715;51.660;7.082;2023-02-24T10:00:49;4.50;99.90
5086;DHT22;4715;51.660;7.082;2023-02-24T10:03:18;4.50;99.90
5086;DHT22;4715;51.660;7.082;2023-02-24T10:06:06;4.50;99.90
5086;DHT22;4715;51.660;7.082;2023-02-24T10:08:34;4.50;99.90
5086;DHT22;4715;51.660;7.082;2023-02-24T10:10:59;4.50;99.90
5086;DHT22;4715;51.660;7.082;2023-02-24T10:13:29;4.50;99.90
5086;DHT22;4715;51.660;7.082;2023-02-24T10:15:52;4.60;99.90
5086;DHT22;4715;51.660;7.082;2023-02-24T10:18:27;4.60;99.90
5086;DHT22;4715;51.660;7.082;2023-02-24T10:20:49;4.60;99.90
5086;DHT22;4715;51.660;7.082;2023-02-24T10:23:18;4.60;99.90
5086;DHT22;4715;51.660;7.082;2023-02-24T10:25:55;4.60;99.90
5086;DHT22;4715;51.660;7.082;2023-02-24T10:28:30;4.60;99.90
5086;DHT22;4715;51.660;7.082;2023-02-24T10:31:02;4.60;99.90
5086;DHT22;4715;51.660;7.082;2023-02-24T10:33:33;4.50;99.90
5086;DHT22;4715;51.660;7.082;2023-02-24T10:36:07;4.50;99.90
5086;DHT22;4715;51.660;7.082;2023-02-24T10:38:30;4.50;99.90
5086;DHT22;4715;51.660;7.082;2023-02-24T10:40:53;4.40;99.90
5086;DHT22;4715;51.660;7.082;2023-02-24T10:43:18;4.40;99.90
5086;DHT22;4715;51.660;7.082;2023-02-24T10:45:50;4.40;99.90
5086;DHT22;4715;51.660;7.082;2023-02-24T10:48:25;4.40;99.90
5086;DHT22;4715;51.660;7.082;2023-02-24T10:50:49;4.30;99.90
5086;DHT22;4715;51.660;7.082;2023-02-24T10:53:17;4.30;99.90
5086;DHT22;4715;51.660;7.082;2023-02-24T10:55:57;4.30;99.90
5086;DHT22;4715;51.660;7.082;2023-02-24T10:58:47;4.20;99.90
5086;DHT22;4715;51.660;7.082;2023-02-24T11:01:42;4.20;99.90
5086;DHT22;4715;51.660;7.082;2023-02-24T11:04:16;4.20;99.90
5086;DHT22;4715;51.660;7.082;2023-02-24T11:07:01;4.20;99.90
5086;DHT22;4715;51.660;7.082;2023-02-24T11:09:30;4.20;99.90
5086;DHT22;4715;51.660;7.082;2023-02-24T11:11:59;4.20;99.90
5086;DHT22;4715;51.660;7.082;2023-02-24T11:14:48;4.20;99.90
5086;DHT22;4715;51.660;7.082;2023-02-24T11:17:28;4.20;99.90
5086;DHT22;4715;51.660;7.082;2023-02-24T11:19:57;4.10;99.90
5086;DHT22;4715;51.660;7.082;2023-02-24T11:22:23;4.10;99.90
5086;DHT22;4715;51.660;7.082;2023-02-24T11:24:47;4.10;99.90
5086;DHT22;4715;51.660;7.082;2023-02-24T11:27:12;4.00;99.90
5086;DHT22;4715;51.660;7.082;2023-02-24T11:30:00;4.00;99.90
5086;DHT22;4715;51.660;7.082;2023-02-24T11:32:47;4.00;99.90
5086;DHT22;4715;51.660;7.082;2023-02-24T11:35:19;4.00;99.90
5086;DHT22;4715;51.660;7.082;2023-02-24T11:37:47;4.00;99.90
5086;DHT22;4715;51.660;7.082;2023-02-24T11:40:14;4.00;99.90
5086;DHT22;4715;51.660;7.082;2023-02-24T11:42:50;4.00;99.90
5086;DHT22;4715;51.660;7.082;2023-02-24T11:45:25;4.00;99.90
5086;DHT22;4715;51.660;7.082;2023-02-24T11:47:53;3.90;99.90
5086;DHT22;4715;51.660;7.082;2023-02-24T11:50:38;3.90;99.90
5086;DHT22;4715;51.660;7.082;2023-02-24T11:53:11;3.90;99.90
5086;DHT22;4715;51.660;7.082;2023-02-24T11:55:42;3.90;99.90
5086;DHT22;4715;51.660;7.082;2023-02-24T11:58:15;3.80;99.90
5086;DHT22;4715;51.660;7.082;2023-02-24T12:00:47;3.80;99.90
5086;DHT22;4715;51.660;7.082;2023-02-24T12:03:15;3.80;99.90
5086;DHT22;4715;51.660;7.082;2023-02-24T12:05:41;3.70;99.90
5086;DHT22;4715;51.660;7.082;2023-02-24T12:08:09;3.70;99.90
5086;DHT22;4715;51.660;7.082;2023-02-24T12:10:35;3.70;99.90
5086;DHT22;4715;51.660;7.082;2023-02-24T12:13:01;3.70;99.90
5086;DHT22;4715;51.660;7.082;2023-02-24T12:15:34;3.70;99.90
5086;DHT22;4715;51.660;7.082;2023-02-24T12:18:06;3.70;99.90
5086;DHT22;4715;51.660;7.082;2023-02-24T12:20:37;3.80;99.90
5086;DHT22;4715;51.660;7.082;2023-02-24T12:23:06;3.80;99.90
5086;DHT22;4715;51.660;7.082;2023-02-24T12:25:37;3.80;99.90
5086;DHT22;4715;51.660;7.082;2023-02-24T12:28:12;3.80;99.90
5086;DHT22;4715;51.660;7.082;2023-02-24T12:30:51;3.80;99.90
5086;DHT22;4715;51.660;7.082;2023-02-24T12:33:38;3.80;99.90
5086;DHT22;4715;51.660;7.082;2023-02-24T12:36:10;3.80;99.90
5086;DHT22;4715;51.660;7.082;2023-02-24T12:38:45;3.80;99.90
5086;DHT22;4715;51.660;7.082;2023-02-24T12:41:26;3.80;99.90
5086;DHT22;4715;51.660;7.082;2023-02-24T12:43:54;3.80;99.90
5086;DHT22;4715;51.660;7.082;2023-02-24T12:46:24;3.80;99.90
5086;DHT22;4715;51.660;7.082;2023-02-24T12:49:12;3.70;99.90
5086;DHT22;4715;51.660;7.082;2023-02-24T12:51:44;3.80;99.90
5086;DHT22;4715;51.660;7.082;2023-02-24T12:54:15;3.80;99.90
5086;DHT22;4715;51.660;7.082;2023-02-24T12:56:44;3.80;99.90
5086;DHT22;4715;51.660;7.082;2023-02-24T12:59:12;3.80;99.90
5086;DHT22;4715;51.660;7.082;2023-02-24T13:01:52;3.80;99.90
5086;DHT22;4715;51.660;7.082;2023-02-24T13:04:28;3.80;99.90
5086;DHT22;4715;51.660;7.082;2023-02-24T13:07:11;3.80;99.90
5086;DHT22;4715;51.660;7.082;2023-02-24T13:09:44;3.80;99.90
5086;DHT22;4715;51.660;7.082;2023-02-24T13:12:13;3.80;99.90
5086;DHT22;4715;51.660;7.082;2023-02-24T13:14:37;3.90;99.90
5086;DHT22;4715;51.660;7.082;2023-02-24T13:17:21;3.90;99.90
5086;DHT22;4715;51.660;7.082;2023-02-24T13:19:44;3.90;99.90
5086;DHT22;4715;51.660;7.082;2023-02-24T13:22:19;3.90;99.90
5086;DHT22;4715;51.660;7.082;2023-02-24T13:24:55;4.00;99.90
5086;DHT22;4715;51.660;7.082;2023-02-24T13:27:27;4.00;99.90
5086;DHT22;4715;51.660;7.082;2023-02-24T13:29:51;4.00;99.90
5086;DHT22;4715;51.660;7.082;2023-02-24T13:32:28;4.00;99.90
5086;DHT22;4715;51.660;7.082;2023-02-24T13:34:51;4.10;99.90
5086;DHT22;4715;51.660;7.082;2023-02-24T13:37:14;4.10;99.90
5086;DHT22;4715;51.660;7.082;2023-02-24T13:39:48;4.10;99.90
5086;DHT22;4715;51.660;7.082;2023-02-24T13:42:22;4.10;99.90
5086;DHT22;4715;51.660;7.082;2023-02-24T13:44:47;4.10;99.90
5086;DHT22;4715;51.660;7.082;2023-02-24T13:47:29;4.10;99.90
5086;DHT22;4715;51.660;7.082;2023-02-24T13:50:04;4.20;99.90
5086;DHT22;4715;51.660;7.082;2023-02-24T13:52:42;4.20;99.90
5086;DHT22;4715;51.660;7.082;2023-02-24T13:55:17;4.20;99.90
5086;DHT22;4715;51.660;7.082;2023-02-24T13:57:51;4.20;99.90
5086;DHT22;4715;51.660;7.082;2023-02-24T14:00:24;4.20;99.90
5086;DHT22;4715;51.660;7.082;2023-02-24T14:02:51;4.20;99.90
5086;DHT22;4715;51.660;7.082;2023-02-24T14:05:19;4.30;99.90
5086;DHT22;4715;51.660;7.082;2023-02-24T14:07:46;4.30;99.90
5086;DHT22;4715;51.660;7.082;2023-02-24T14:10:20;4.30;99.90
5086;DHT22;4715;51.660;7.082;2023-02-24T14:12:46;4.30;99.90
5086;DHT22;4715;51.660;7.082;2023-02-24T14:15:12;4.40;99.90
5086;DHT22;4715;51.660;7.082;2023-02-24T14:17:36;4.40;99.90
5086;DHT22;4715;51.660;7.082;2023-02-24T14:20:13;4.60;99.90
5086;DHT22;4715;51.660;7.082;2023-02-24T14:22:42;4.60;99.90
5086;DHT22;4715;51.660;7.082;2023-02-24T14:25:05;4.60;99.90
5086;DHT22;4715;51.660;7.082;2023-02-24T14:27:29;4.60;99.90
5086;DHT22;4715;51.660;7.082;2023-02-24T14:29:51;4.60;99.90
5086;DHT22;4715;51.660;7.082;2023-02-24T14:32:19;4.70;99.90
5086;DHT22;4715;51.660;7.082;2023-02-24T14:34:45;4.80;99.90
5086;DHT22;4715;51.660;7.082;2023-02-24T14:37:10;4.80;99.90
5086;DHT22;4715;51.660;7.082;2023-02-24T14:39:36;4.80;99.90
5086;DHT22;4715;51.660;7.082;2023-02-24T14:42:11;4.90;99.90
5086;DHT22;4715;51.660;7.082;2023-02-24T14:44:40;4.90;99.90
5086;DHT22;4715;51.660;7.082;2023-02-24T14:47:03;5.00;99.90
5086;DHT22;4715;51.660;7.082;2023-02-24T14:49:27;5.00;99.90
5086;DHT22;4715;51.660;7.082;2023-02-24T14:51:54;5.10;99.90
5086;DHT22;4715;51.660;7.082;2023-02-24T14:54:30;5.10;99.90
5086;DHT22;4715;51.660;7.082;2023-02-24T14:56:54;5.10;99.90
5086;DHT22;4715;51.660;7.082;2023-02-24T14:59:27;5.20;99.90
5086;DHT22;4715;51.660;7.082;2023-02-24T15:01:53;5.20;99.90
5086;DHT22;4715;51.660;7.082;2023-02-24T15:04:24;5.30;99.90
5086;DHT22;4715;51.660;7.082;2023-02-24T15:06:52;5.30;99.90
5086;DHT22;4715;51.660;7.082;2023-02-24T15:09:17;5.40;99.90
5086;DHT22;4715;51.660;7.082;2023-02-24T15:11:42;5.40;99.90
5086;DHT22;4715;51.660;7.082;2023-02-24T15:14:13;5.40;99.90
5086;DHT22;4715;51.660;7.082;2023-02-24T15:16:42;5.50;99.90
5086;DHT22;4715;51.660;7.082;2023-02-24T15:19:20;5.50;99.90
5086;DHT22;4715;51.660;7.082;2023-02-24T15:21:44;5.50;99.90
5086;DHT22;4715;51.660;7.082;2023-02-24T15:24:16;5.50;99.90
5086;DHT22;4715;51.660;7.082;2023-02-24T15:26:40;5.50;99.90
5086;DHT22;4715;51.660;7.082;2023-02-24T15:29:12;5.60;99.90
5086;DHT22;4715;51.660;7.082;2023-02-24T15:31:35;5.70;99.90
5086;DHT22;4715;51.660;7.082;2023-02-24T15:33:58;5.70;99.90
5086;DHT22;4715;51.660;7.082;2023-02-24T15:36:24;5.80;99.90
5086;DHT22;4715;51.660;7.082;2023-02-24T15:38:50;5.80;99.90
5086;DHT22;4715;51.660;7.082;2023-02-24T15:41:13;5.80;99.90
5086;DHT22;4715;51.660;7.082;2023-02-24T15:43:43;5.90;99.90
5086;DHT22;4715;51.660;7.082;2023-02-24T15:46:22;5.90;99.90
5086;DHT22;4715;51.660;7.082;2023-02-24T15:48:45;5.90;99.90
5086;DHT22;4715;51.660;7.082;2023-02-24T15:51:17;5.90;99.90
5086;DHT22;4715;51.660;7.082;2023-02-24T15:53:40;5.90;99.90
5086;DHT22;4715;51.660;7.082;2023-02-24T15:56:02;5.90;99.90
5086;DHT22;4715;51.660;7.082;2023-02-24T15:58:25;5.90;99.90
5086;DHT22;4715;51.660;7.082;2023-02-24T16:00:50;5.90;99.90
5086;DHT22;4715;51.660;7.082;2023-02-24T16:03:12;5.80;99.90
5086;DHT22;4715;51.660;7.082;2023-02-24T16:05:34;5.70;99.90
5086;DHT22;4715;51.660;7.082;2023-02-24T16:07:56;5.60;99.90
5086;DHT22;4715;51.660;7.082;2023-02-24T16:10:23;5.50;99.90
5086;DHT22;4715;51.660;7.082;2023-02-24T16:12:48;5.50;99.90
5086;DHT22;4715;51.660;7.082;2023-02-24T16:15:16;5.70;99.90
5086;DHT22;4715;51.660;7.082;2023-02-24T16:17:41;6.20;99.90
5086;DHT22;4715;51.660;7.082;2023-02-24T16:20:05;6.90;99.90
5086;DHT22;4715;51.660;7.082;2023-02-24T16:22:28;7.50;99.90
5086;DHT22;4715;51.660;7.082;2023-02-24T16:24:51;7.90;99.90